sensor_id;sensor_type;location;lat;lon;timestamp;pressure;altitude;pressure_sealevel;temperature;humidity
81511;BME280;70931;48.796;8.440;2023-07-20T00:00:53;97135.13;;;19.70;47.32
81511;BME280;70931;48.796;8.440;2023-07-20T00:03:19;97130.97;;;19.56;47.26
81511;BME280;70931;48.796;8.440;2023-07-20T00:05:45;97142.84;;;19.55;47.31
81511;BME280;70931;48.796;8.440;2023-07-20T00:08:11;97139.25;;;19.43;47.30
81511;BME280;70931;48.796;8.440;2023-07-20T00:10:37;97123.19;;;19.30;48.31
81511;BME280;70931;48.796;8.440;2023-07-20T00:13:02;97125.75;;;19.25;47.72
81511;BME280;70931;48.796;8.440;2023-07-20T00:15:27;97119.50;;;19.24;47.61
81511;BME280;70931;48.796;8.440;2023-07-20T00:17:52;97138.94;;;19.33;49.79
81511;BME280;70931;48.796;8.440;2023-07-20T00:20:18;97132.81;;;19.08;48.17
81511;BME280;70931;48.796;8.440;2023-07-20T00:22:43;97134.19;;;19.17;48.32
81511;BME280;70931;48.796;8.440;2023-07-20T00:25:08;97131.75;;;19.09;48.75
81511;BME280;70931;48.796;8.440;2023-07-20T00:27:34;97128.47;;;19.07;49.75
81511;BME280;70931;48.796;8.440;2023-07-20T00:29:59;97142.13;;;19.12;50.30
81511;BME280;70931;48.796;8.440;2023-07-20T00:32:24;97141.38;;;19.05;49.86
81511;BME280;70931;48.796;8.440;2023-07-20T00:34:49;97143.94;;;19.00;50.29
81511;BME280;70931;48.796;8.440;2023-07-20T00:37:14;97152.72;;;18.95;50.69
81511;BME280;70931;48.796;8.440;2023-07-20T00:39:40;97148.22;;;18.89;50.94
81511;BME280;70931;48.796;8.440;2023-07-20T00:42:05;97155.78;;;18.81;54.36
81511;BME280;70931;48.796;8.440;2023-07-20T00:44:30;97153.78;;;18.76;51.90
81511;BME280;70931;48.796;8.440;2023-07-20T00:46:56;97128.88;;;18.49;53.63
81511;BME280;70931;48.796;8.440;2023-07-20T00:49:21;97151.41;;;18.61;52.98
81511;BME280;70931;48.796;8.440;2023-07-20T00:51:48;97143.75;;;18.58;53.43
81511;BME280;70931;48.796;8.440;2023-07-20T00:54:15;97143.16;;;18.56;51.35
81511;BME280;70931;48.796;8.440;2023-07-20T00:56:40;97105.50;;;18.37;52.22
81511;BME280;70931;48.796;8.440;2023-07-20T00:59:05;97139.84;;;18.54;53.32
81511;BME280;70931;48.796;8.440;2023-07-20T01:01:31;97115.78;;;18.46;53.43
81511;BME280;70931;48.796;8.440;2023-07-20T01:03:56;97130.25;;;18.58;52.57
81511;BME280;70931;48.796;8.440;2023-07-20T01:11:36;97144.81;;;18.33;55.06
81511;BME280;70931;48.796;8.440;2023-07-20T01:14:03;97151.75;;;18.22;56.79
81511;BME280;70931;48.796;8.440;2023-07-20T01:16:28;97151.69;;;18.04;55.86
81511;BME280;70931;48.796;8.440;2023-07-20T01:18:53;97151.34;;;17.94;56.84
81511;BME280;70931;48.796;8.440;2023-07-20T01:21:26;97150.16;;;17.58;57.10
81511;BME280;70931;48.796;8.440;2023-07-20T01:32:24;97129.41;;;17.08;59.16
81511;BME280;70931;48.796;8.440;2023-07-20T01:34:52;97140.63;;;17.05;59.03
81511;BME280;70931;48.796;8.440;2023-07-20T01:37:20;97139.00;;;16.91;60.25
81511;BME280;70931;48.796;8.440;2023-07-20T01:39:46;97146.72;;;16.87;60.11
81511;BME280;70931;48.796;8.440;2023-07-20T01:42:11;97129.78;;;16.47;61.60
81511;BME280;70931;48.796;8.440;2023-07-20T01:44:37;97138.69;;;16.61;60.93
81511;BME280;70931;48.796;8.440;2023-07-20T01:47:03;97136.81;;;16.62;61.47
81511;BME280;70931;48.796;8.440;2023-07-20T01:49:28;97119.03;;;16.41;61.96
81511;BME280;70931;48.796;8.440;2023-07-20T01:51:54;97137.03;;;16.40;61.63
81511;BME280;70931;48.796;8.440;2023-07-20T01:54:19;97133.53;;;16.40;62.05
81511;BME280;70931;48.796;8.440;2023-07-20T01:56:44;97134.78;;;16.37;62.08
81511;BME280;70931;48.796;8.440;2023-07-20T01:59:09;97130.84;;;16.07;62.77
81511;BME280;70931;48.796;8.440;2023-07-20T02:01:34;97133.53;;;16.07;63.20
81511;BME280;70931;48.796;8.440;2023-07-20T02:04:00;97141.00;;;16.05;62.87
81511;BME280;70931;48.796;8.440;2023-07-20T02:06:25;97133.97;;;15.98;63.49
81511;BME280;70931;48.796;8.440;2023-07-20T02:08:50;97129.63;;;15.83;65.13
81511;BME280;70931;48.796;8.440;2023-07-20T02:11:15;97144.72;;;15.91;64.51
81511;BME280;70931;48.796;8.440;2023-07-20T02:13:41;97140.78;;;15.80;64.90
81511;BME280;70931;48.796;8.440;2023-07-20T02:16:06;97147.41;;;15.78;65.13
81511;BME280;70931;48.796;8.440;2023-07-20T02:18:31;97143.47;;;15.74;65.26
81511;BME280;70931;48.796;8.440;2023-07-20T02:20:56;97143.66;;;15.66;65.94
81511;BME280;70931;48.796;8.440;2023-07-20T02:23:22;97142.00;;;15.58;65.57
81511;BME280;70931;48.796;8.440;2023-07-20T02:25:47;97140.09;;;15.46;65.77
81511;BME280;70931;48.796;8.440;2023-07-20T02:28:15;97130.63;;;15.50;65.79
81511;BME280;70931;48.796;8.440;2023-07-20T02:30:40;97142.19;;;15.57;65.94
81511;BME280;70931;48.796;8.440;2023-07-20T02:33:07;97139.31;;;15.52;65.40
81511;BME280;70931;48.796;8.440;2023-07-20T02:35:32;97132.81;;;15.26;65.84
81511;BME280;70931;48.796;8.440;2023-07-20T02:37:58;97146.06;;;15.34;65.76
81511;BME280;70931;48.796;8.440;2023-07-20T02:40:23;97145.81;;;15.23;66.99
81511;BME280;70931;48.796;8.440;2023-07-20T02:42:48;97155.72;;;15.22;66.32
81511;BME280;70931;48.796;8.440;2023-07-20T02:45:14;97143.94;;;15.30;66.41
81511;BME280;70931;48.796;8.440;2023-07-20T02:47:39;97148.69;;;15.21;67.00
81511;BME280;70931;48.796;8.440;2023-07-20T02:50:07;97148.03;;;15.06;67.28
81511;BME280;70931;48.796;8.440;2023-07-20T02:52:32;97137.03;;;15.01;67.96
81511;BME280;70931;48.796;8.440;2023-07-20T02:54:58;97141.16;;;14.97;67.79
81511;BME280;70931;48.796;8.440;2023-07-20T02:57:23;97148.56;;;14.95;67.66
81511;BME280;70931;48.796;8.440;2023-07-20T02:59:48;97144.03;;;14.89;68.36
81511;BME280;70931;48.796;8.440;2023-07-20T03:02:13;97156.19;;;14.85;69.02
81511;BME280;70931;48.796;8.440;2023-07-20T03:04:39;97148.19;;;14.98;67.86
81511;BME280;70931;48.796;8.440;2023-07-20T03:07:05;97148.19;;;14.98;67.91
81511;BME280;70931;48.796;8.440;2023-07-20T03:09:30;97149.84;;;14.99;68.35
81511;BME280;70931;48.796;8.440;2023-07-20T03:11:55;97141.50;;;14.81;68.54
81511;BME280;70931;48.796;8.440;2023-07-20T03:14:20;97148.56;;;14.89;68.01
81511;BME280;70931;48.796;8.440;2023-07-20T03:16:46;97159.09;;;14.83;69.12
81511;BME280;70931;48.796;8.440;2023-07-20T03:19:11;97134.78;;;14.64;68.56
81511;BME280;70931;48.796;8.440;2023-07-20T03:21:36;97142.44;;;14.67;69.19
81511;BME280;70931;48.796;8.440;2023-07-20T03:24:01;97149.66;;;14.60;68.86
81511;BME280;70931;48.796;8.440;2023-07-20T03:26:27;97086.16;;;14.11;69.07
81511;BME280;70931;48.796;8.440;2023-07-20T03:28:52;97150.88;;;14.57;69.34
81511;BME280;70931;48.796;8.440;2023-07-20T03:31:17;97160.00;;;14.69;69.95
81511;BME280;70931;48.796;8.440;2023-07-20T03:33:42;97158.94;;;14.64;70.08
81511;BME280;70931;48.796;8.440;2023-07-20T03:36:08;97151.06;;;14.56;69.39
81511;BME280;70931;48.796;8.440;2023-07-20T03:38:33;97154.22;;;14.66;69.79
81511;BME280;70931;48.796;8.440;2023-07-20T03:41:00;97158.31;;;14.62;69.30
81511;BME280;70931;48.796;8.440;2023-07-20T03:43:27;97157.88;;;14.58;70.16
81511;BME280;70931;48.796;8.440;2023-07-20T03:45:53;97161.25;;;14.67;69.54
81511;BME280;70931;48.796;8.440;2023-07-20T03:48:22;97129.59;;;14.56;69.49
81511;BME280;70931;48.796;8.440;2023-07-20T03:50:49;97163.19;;;14.79;69.26
81511;BME280;70931;48.796;8.440;2023-07-20T03:53:16;97169.38;;;14.80;69.58
81511;BME280;70931;48.796;8.440;2023-07-20T03:55:44;97153.28;;;14.80;68.86
81511;BME280;70931;48.796;8.440;2023-07-20T03:58:09;97152.59;;;14.71;69.41
81511;BME280;70931;48.796;8.440;2023-07-20T04:00:34;97144.16;;;14.74;69.82
81511;BME280;70931;48.796;8.440;2023-07-20T04:03:00;97174.63;;;14.95;69.21
81511;BME280;70931;48.796;8.440;2023-07-20T04:05:25;97152.88;;;14.90;69.11
81511;BME280;70931;48.796;8.440;2023-07-20T04:07:50;97153.53;;;14.98;70.30
81511;BME280;70931;48.796;8.440;2023-07-20T04:10:15;97166.81;;;15.06;68.97
81511;BME280;70931;48.796;8.440;2023-07-20T04:12:41;97154.78;;;14.96;68.61
81511;BME280;70931;48.796;8.440;2023-07-20T04:15:06;97159.38;;;15.08;68.31
81511;BME280;70931;48.796;8.440;2023-07-20T04:17:32;97160.66;;;15.12;68.90
81511;BME280;70931;48.796;8.440;2023-07-20T04:19:57;97166.88;;;15.19;69.10
81511;BME280;70931;48.796;8.440;2023-07-20T04:22:22;97171.84;;;15.22;69.02
81511;BME280;70931;48.796;8.440;2023-07-20T04:24:47;97161.09;;;15.22;68.72
81511;BME280;70931;48.796;8.440;2023-07-20T04:27:13;97174.97;;;15.32;68.57
81511;BME280;70931;48.796;8.440;2023-07-20T04:29:38;97165.28;;;15.38;69.31
81511;BME280;70931;48.796;8.440;2023-07-20T04:32:03;97168.16;;;15.36;68.73
81511;BME280;70931;48.796;8.440;2023-07-20T04:34:29;97174.81;;;15.40;68.69
81511;BME280;70931;48.796;8.440;2023-07-20T04:36:54;97171.47;;;15.38;69.00
81511;BME280;70931;48.796;8.440;2023-07-20T04:39:19;97170.66;;;15.45;69.30
81511;BME280;70931;48.796;8.440;2023-07-20T04:41:44;97165.78;;;15.55;68.85
81511;BME280;70931;48.796;8.440;2023-07-20T04:44:10;97173.44;;;15.58;69.04
81511;BME280;70931;48.796;8.440;2023-07-20T04:46:35;97148.78;;;15.48;68.31
81511;BME280;70931;48.796;8.440;2023-07-20T04:49:01;97173.25;;;15.66;68.55
81511;BME280;70931;48.796;8.440;2023-07-20T04:51:26;97169.53;;;15.67;68.62
81511;BME280;70931;48.796;8.440;2023-07-20T04:53:51;97168.91;;;15.78;69.32
81511;BME280;70931;48.796;8.440;2023-07-20T04:56:16;97164.59;;;15.83;69.20
81511;BME280;70931;48.796;8.440;2023-07-20T04:58:42;97171.63;;;15.91;68.62
81511;BME280;70931;48.796;8.440;2023-07-20T05:01:08;97108.28;;;15.49;68.27
81511;BME280;70931;48.796;8.440;2023-07-20T05:03:33;97161.25;;;15.88;68.44
81511;BME280;70931;48.796;8.440;2023-07-20T05:05:58;97156.72;;;15.95;68.67
81511;BME280;70931;48.796;8.440;2023-07-20T05:08:24;97174.75;;;16.01;68.43
81511;BME280;70931;48.796;8.440;2023-07-20T05:10:49;97172.69;;;16.10;68.85
81511;BME280;70931;48.796;8.440;2023-07-20T05:13:15;97166.06;;;16.12;68.81
81511;BME280;70931;48.796;8.440;2023-07-20T05:15:40;97142.66;;;16.06;68.39
81511;BME280;70931;48.796;8.440;2023-07-20T05:18:05;97161.09;;;16.09;68.42
81511;BME280;70931;48.796;8.440;2023-07-20T05:20:30;97163.75;;;16.22;68.34
81511;BME280;70931;48.796;8.440;2023-07-20T05:22:56;97169.16;;;16.29;68.14
81511;BME280;70931;48.796;8.440;2023-07-20T05:25:21;97164.56;;;16.42;69.20
81511;BME280;70931;48.796;8.440;2023-07-20T05:27:46;97168.75;;;16.38;69.23
81511;BME280;70931;48.796;8.440;2023-07-20T05:30:11;97153.38;;;16.45;68.75
81511;BME280;70931;48.796;8.440;2023-07-20T05:32:37;97160.44;;;16.60;67.91
81511;BME280;70931;48.796;8.440;2023-07-20T05:35:02;97156.72;;;16.61;67.75
81511;BME280;70931;48.796;8.440;2023-07-20T05:37:27;97144.88;;;16.62;68.09
81511;BME280;70931;48.796;8.440;2023-07-20T05:39:53;97153.38;;;16.78;67.67
81511;BME280;70931;48.796;8.440;2023-07-20T05:42:18;97158.69;;;16.91;66.99
81511;BME280;70931;48.796;8.440;2023-07-20T05:44:43;97151.44;;;16.92;68.00
81511;BME280;70931;48.796;8.440;2023-07-20T05:47:08;97152.44;;;17.04;67.86
81511;BME280;70931;48.796;8.440;2023-07-20T05:49:34;97148.09;;;17.03;66.79
81511;BME280;70931;48.796;8.440;2023-07-20T05:52:00;97155.06;;;17.24;65.95
81511;BME280;70931;48.796;8.440;2023-07-20T05:54:25;97157.69;;;17.37;65.23
81511;BME280;70931;48.796;8.440;2023-07-20T05:56:50;97162.19;;;17.49;64.81
81511;BME280;70931;48.796;8.440;2023-07-20T05:59:15;97154.56;;;17.40;66.17
81511;BME280;70931;48.796;8.440;2023-07-20T06:01:41;97164.47;;;17.52;65.89
81511;BME280;70931;48.796;8.440;2023-07-20T06:04:06;97158.41;;;17.63;65.21
81511;BME280;70931;48.796;8.440;2023-07-20T06:06:31;97167.09;;;17.65;65.37
81511;BME280;70931;48.796;8.440;2023-07-20T06:08:56;97167.28;;;17.71;62.84
81511;BME280;70931;48.796;8.440;2023-07-20T06:11:22;97165.38;;;17.78;59.67
81511;BME280;70931;48.796;8.440;2023-07-20T06:13:47;97165.53;;;17.83;60.16
81511;BME280;70931;48.796;8.440;2023-07-20T06:16:12;97179.41;;;17.86;63.84
81511;BME280;70931;48.796;8.440;2023-07-20T06:18:37;97179.28;;;18.06;60.60
81511;BME280;70931;48.796;8.440;2023-07-20T06:21:02;97157.88;;;17.80;59.38
81511;BME280;70931;48.796;8.440;2023-07-20T06:23:28;97162.69;;;18.02;58.50
81511;BME280;70931;48.796;8.440;2023-07-20T06:25:53;97163.09;;;18.06;58.21
81511;BME280;70931;48.796;8.440;2023-07-20T06:28:18;97158.91;;;18.10;57.86
81511;BME280;70931;48.796;8.440;2023-07-20T06:30:43;97179.19;;;18.19;57.75
81511;BME280;70931;48.796;8.440;2023-07-20T06:33:09;97157.25;;;18.09;58.33
81511;BME280;70931;48.796;8.440;2023-07-20T06:35:34;97137.53;;;18.08;57.23
81511;BME280;70931;48.796;8.440;2023-07-20T06:37:59;97163.91;;;18.31;57.51
81511;BME280;70931;48.796;8.440;2023-07-20T06:40:25;97165.38;;;18.34;58.14
81511;BME280;70931;48.796;8.440;2023-07-20T06:42:50;97170.16;;;18.32;58.13
81511;BME280;70931;48.796;8.440;2023-07-20T06:45:15;97164.53;;;18.33;57.74
81511;BME280;70931;48.796;8.440;2023-07-20T06:47:40;97171.13;;;18.37;58.03
81511;BME280;70931;48.796;8.440;2023-07-20T06:50:06;97161.88;;;18.51;56.86
81511;BME280;70931;48.796;8.440;2023-07-20T06:52:32;97176.47;;;18.50;57.59
81511;BME280;70931;48.796;8.440;2023-07-20T06:54:57;97173.03;;;18.61;56.75
81511;BME280;70931;48.796;8.440;2023-07-20T06:57:22;97162.22;;;18.61;57.01
81511;BME280;70931;48.796;8.440;2023-07-20T06:59:48;97175.44;;;18.69;57.29
81511;BME280;70931;48.796;8.440;2023-07-20T07:02:13;97172.00;;;18.81;56.94
81511;BME280;70931;48.796;8.440;2023-07-20T07:04:38;97145.41;;;18.77;56.53
81511;BME280;70931;48.796;8.440;2023-07-20T07:07:04;97179.06;;;18.82;56.38
81511;BME280;70931;48.796;8.440;2023-07-20T07:09:29;97142.97;;;18.76;56.49
81511;BME280;70931;48.796;8.440;2023-07-20T07:11:54;97169.22;;;18.87;56.49
81511;BME280;70931;48.796;8.440;2023-07-20T07:14:20;97178.00;;;18.64;56.39
81511;BME280;70931;48.796;8.440;2023-07-20T07:16:45;97141.50;;;18.55;56.43
81511;BME280;70931;48.796;8.440;2023-07-20T07:19:10;97166.75;;;18.86;56.84
81511;BME280;70931;48.796;8.440;2023-07-20T07:21:36;97161.34;;;19.04;56.69
81511;BME280;70931;48.796;8.440;2023-07-20T07:24:01;97165.09;;;19.21;56.73
81511;BME280;70931;48.796;8.440;2023-07-20T07:26:26;97139.28;;;18.89;56.18
81511;BME280;70931;48.796;8.440;2023-07-20T07:28:51;97173.13;;;18.91;56.00
81511;BME280;70931;48.796;8.440;2023-07-20T07:31:17;97180.06;;;19.05;55.15
81511;BME280;70931;48.796;8.440;2023-07-20T07:33:42;97177.94;;;19.07;56.37
81511;BME280;70931;48.796;8.440;2023-07-20T07:36:07;97182.47;;;19.13;54.70
81511;BME280;70931;48.796;8.440;2023-07-20T07:38:32;97180.41;;;19.09;54.85
81511;BME280;70931;48.796;8.440;2023-07-20T07:40:58;97178.94;;;19.31;54.87
81511;BME280;70931;48.796;8.440;2023-07-20T07:43:23;97185.50;;;19.35;54.40
81511;BME280;70931;48.796;8.440;2023-07-20T07:45:49;97172.81;;;19.17;55.04
81511;BME280;70931;48.796;8.440;2023-07-20T07:48:14;97170.34;;;19.34;55.23
81511;BME280;70931;48.796;8.440;2023-07-20T07:50:40;97165.53;;;19.36;55.63
81511;BME280;70931;48.796;8.440;2023-07-20T07:53:05;97179.16;;;19.77;55.33
81511;BME280;70931;48.796;8.440;2023-07-20T07:55:31;97177.66;;;19.81;55.13
81511;BME280;70931;48.796;8.440;2023-07-20T07:57:56;97163.44;;;19.98;54.48
81511;BME280;70931;48.796;8.440;2023-07-20T08:00:21;97182.31;;;20.16;54.42
81511;BME280;70931;48.796;8.440;2023-07-20T08:02:47;97184.06;;;19.99;53.97
81511;BME280;70931;48.796;8.440;2023-07-20T08:05:12;97153.34;;;20.05;53.46
81511;BME280;70931;48.796;8.440;2023-07-20T08:07:38;97182.41;;;20.39;54.40
81511;BME280;70931;48.796;8.440;2023-07-20T08:10:04;97176.53;;;20.65;52.81
81511;BME280;70931;48.796;8.440;2023-07-20T08:12:29;97182.44;;;20.62;51.71
81511;BME280;70931;48.796;8.440;2023-07-20T08:14:54;97179.94;;;20.61;52.31
81511;BME280;70931;48.796;8.440;2023-07-20T08:17:19;97181.81;;;20.95;51.20
81511;BME280;70931;48.796;8.440;2023-07-20T08:19:46;97175.59;;;21.18;49.23
81511;BME280;70931;48.796;8.440;2023-07-20T08:22:11;97175.56;;;21.97;48.11
81511;BME280;70931;48.796;8.440;2023-07-20T08:24:39;97183.84;;;22.36;47.05
81511;BME280;70931;48.796;8.440;2023-07-20T08:27:05;97173.50;;;22.04;47.36
81511;BME280;70931;48.796;8.440;2023-07-20T08:29:30;97182.84;;;22.42;46.41
81511;BME280;70931;48.796;8.440;2023-07-20T08:31:55;97172.00;;;22.58;46.04
81511;BME280;70931;48.796;8.440;2023-07-20T08:34:20;97188.63;;;22.62;46.10
81511;BME280;70931;48.796;8.440;2023-07-20T08:36:46;97180.09;;;23.08;45.41
81511;BME280;70931;48.796;8.440;2023-07-20T08:39:11;97167.16;;;23.15;44.48
81511;BME280;70931;48.796;8.440;2023-07-20T08:41:36;97185.53;;;23.68;42.77
81511;BME280;70931;48.796;8.440;2023-07-20T08:44:01;97172.41;;;23.65;42.59
81511;BME280;70931;48.796;8.440;2023-07-20T08:46:28;97190.22;;;23.73;42.78
81511;BME280;70931;48.796;8.440;2023-07-20T08:48:55;97188.53;;;23.28;41.60
81511;BME280;70931;48.796;8.440;2023-07-20T08:51:21;97186.09;;;23.49;40.52
81511;BME280;70931;48.796;8.440;2023-07-20T08:53:47;97156.63;;;23.41;40.42
81511;BME280;70931;48.796;8.440;2023-07-20T08:56:13;97170.69;;;24.08;39.85
81511;BME280;70931;48.796;8.440;2023-07-20T08:58:41;97157.69;;;24.42;39.62
81511;BME280;70931;48.796;8.440;2023-07-20T09:01:08;97180.97;;;24.91;38.73
81511;BME280;70931;48.796;8.440;2023-07-20T09:03:33;97154.00;;;24.94;40.12
81511;BME280;70931;48.796;8.440;2023-07-20T09:05:59;97178.00;;;25.39;37.49
81511;BME280;70931;48.796;8.440;2023-07-20T09:08:24;97165.13;;;26.02;37.30
81511;BME280;70931;48.796;8.440;2023-07-20T09:10:49;97177.75;;;26.23;35.70
81511;BME280;70931;48.796;8.440;2023-07-20T09:13:15;97187.81;;;25.40;37.65
81511;BME280;70931;48.796;8.440;2023-07-20T09:15:46;97192.44;;;24.88;37.39
81511;BME280;70931;48.796;8.440;2023-07-20T09:18:11;97179.72;;;25.51;36.66
81511;BME280;70931;48.796;8.440;2023-07-20T09:20:36;97177.41;;;25.27;35.99
81511;BME280;70931;48.796;8.440;2023-07-20T09:23:05;97166.25;;;24.87;37.41
81511;BME280;70931;48.796;8.440;2023-07-20T09:25:30;97177.91;;;25.24;38.07
81511;BME280;70931;48.796;8.440;2023-07-20T09:27:55;97174.97;;;25.31;36.39
81511;BME280;70931;48.796;8.440;2023-07-20T09:30:27;97172.06;;;24.69;34.90
81511;BME280;70931;48.796;8.440;2023-07-20T09:32:52;97173.00;;;24.48;35.99
81511;BME280;70931;48.796;8.440;2023-07-20T09:35:22;97177.38;;;24.49;36.42
81511;BME280;70931;48.796;8.440;2023-07-20T09:37:52;97174.44;;;25.34;34.33
81511;BME280;70931;48.796;8.440;2023-07-20T09:40:18;97166.22;;;25.96;33.81
81511;BME280;70931;48.796;8.440;2023-07-20T09:42:44;97174.22;;;26.68;33.43
81511;BME280;70931;48.796;8.440;2023-07-20T09:45:09;97170.06;;;27.26;32.44
81511;BME280;70931;48.796;8.440;2023-07-20T09:47:38;97153.50;;;27.61;31.27
81511;BME280;70931;48.796;8.440;2023-07-20T09:50:04;97166.94;;;28.17;30.92
81511;BME280;70931;48.796;8.440;2023-07-20T09:52:30;97162.41;;;27.18;33.30
81511;BME280;70931;48.796;8.440;2023-07-20T09:54:56;97160.81;;;26.26;33.46
81511;BME280;70931;48.796;8.440;2023-07-20T09:57:23;97134.53;;;26.76;32.40
81511;BME280;70931;48.796;8.440;2023-07-20T09:59:48;97155.22;;;27.32;32.54
81511;BME280;70931;48.796;8.440;2023-07-20T10:02:20;97151.38;;;27.38;31.89
81511;BME280;70931;48.796;8.440;2023-07-20T10:04:46;97140.53;;;27.08;32.92
81511;BME280;70931;48.796;8.440;2023-07-20T10:07:11;97149.59;;;27.78;30.17
81511;BME280;70931;48.796;8.440;2023-07-20T10:09:39;97152.53;;;27.91;29.13
81511;BME280;70931;48.796;8.440;2023-07-20T10:12:05;97146.56;;;26.95;29.25
81511;BME280;70931;48.796;8.440;2023-07-20T10:14:35;97152.06;;;26.90;31.58
81511;BME280;70931;48.796;8.440;2023-07-20T10:17:04;97152.59;;;26.67;30.63
81511;BME280;70931;48.796;8.440;2023-07-20T10:19:43;97150.94;;;27.01;30.70
81511;BME280;70931;48.796;8.440;2023-07-20T10:22:14;97152.03;;;27.10;31.52
81511;BME280;70931;48.796;8.440;2023-07-20T10:24:46;97153.19;;;26.48;31.84
81511;BME280;70931;48.796;8.440;2023-07-20T10:27:12;97152.91;;;26.40;31.53
81511;BME280;70931;48.796;8.440;2023-07-20T10:29:38;97145.53;;;26.86;31.66
81511;BME280;70931;48.796;8.440;2023-07-20T10:32:05;97137.84;;;26.52;27.39
81511;BME280;70931;48.796;8.440;2023-07-20T10:34:31;97132.91;;;26.90;29.40
81511;BME280;70931;48.796;8.440;2023-07-20T10:36:56;97098.81;;;27.36;27.39
81511;BME280;70931;48.796;8.440;2023-07-20T10:39:23;97118.63;;;28.26;27.01
81511;BME280;70931;48.796;8.440;2023-07-20T10:41:48;97111.47;;;28.88;26.17
81511;BME280;70931;48.796;8.440;2023-07-20T10:44:19;97144.97;;;28.56;24.36
81511;BME280;70931;48.796;8.440;2023-07-20T10:46:45;97128.31;;;27.59;27.22
81511;BME280;70931;48.796;8.440;2023-07-20T10:49:12;97131.59;;;27.66;25.47
81511;BME280;70931;48.796;8.440;2023-07-20T10:51:41;97132.31;;;28.26;26.47
81511;BME280;70931;48.796;8.440;2023-07-20T10:54:08;97134.56;;;28.19;26.69
81511;BME280;70931;48.796;8.440;2023-07-20T10:56:33;97120.06;;;28.47;24.89
81511;BME280;70931;48.796;8.440;2023-07-20T10:58:59;97126.28;;;28.92;24.98
81511;BME280;70931;48.796;8.440;2023-07-20T11:01:29;97137.06;;;28.83;25.65
81511;BME280;70931;48.796;8.440;2023-07-20T11:03:58;97136.88;;;27.97;26.27
81511;BME280;70931;48.796;8.440;2023-07-20T11:08:49;97122.56;;;28.10;26.28
81511;BME280;70931;48.796;8.440;2023-07-20T11:11:28;97100.47;;;28.93;25.51
81511;BME280;70931;48.796;8.440;2023-07-20T11:14:07;97088.38;;;29.83;25.46
81511;BME280;70931;48.796;8.440;2023-07-20T11:18:59;97093.56;;;30.41;25.78
81511;BME280;70931;48.796;8.440;2023-07-20T11:21:25;97094.81;;;30.94;24.00
81511;BME280;70931;48.796;8.440;2023-07-20T11:23:52;97088.31;;;31.04;23.15
81511;BME280;70931;48.796;8.440;2023-07-20T11:26:18;97092.78;;;30.35;23.40
81511;BME280;70931;48.796;8.440;2023-07-20T11:28:43;97103.47;;;30.42;25.33
81511;BME280;70931;48.796;8.440;2023-07-20T11:31:08;97102.03;;;29.88;24.71
81511;BME280;70931;48.796;8.440;2023-07-20T11:33:33;97104.72;;;29.32;24.52
81511;BME280;70931;48.796;8.440;2023-07-20T11:35:58;97091.66;;;28.33;25.24
81511;BME280;70931;48.796;8.440;2023-07-20T11:38:24;97102.66;;;28.62;25.69
81511;BME280;70931;48.796;8.440;2023-07-20T11:40:49;97098.16;;;28.76;24.67
81511;BME280;70931;48.796;8.440;2023-07-20T11:43:15;97088.88;;;28.38;25.12
81511;BME280;70931;48.796;8.440;2023-07-20T11:45:40;97080.91;;;28.70;24.29
81511;BME280;70931;48.796;8.440;2023-07-20T11:48:05;97074.06;;;29.20;22.34
81511;BME280;70931;48.796;8.440;2023-07-20T11:50:31;97069.84;;;29.28;23.64
81511;BME280;70931;48.796;8.440;2023-07-20T11:52:56;97082.91;;;29.60;23.60
81511;BME280;70931;48.796;8.440;2023-07-20T11:55:22;97085.09;;;30.19;23.17
81511;BME280;70931;48.796;8.440;2023-07-20T11:58:01;97068.69;;;30.46;22.64
81511;BME280;70931;48.796;8.440;2023-07-20T12:00:27;97086.63;;;30.43;21.09
81511;BME280;70931;48.796;8.440;2023-07-20T12:02:53;97076.38;;;29.74;24.23
81511;BME280;70931;48.796;8.440;2023-07-20T12:05:18;97077.47;;;30.48;21.92
81511;BME280;70931;48.796;8.440;2023-07-20T12:07:44;97062.06;;;30.47;21.51
81511;BME280;70931;48.796;8.440;2023-07-20T12:10:11;97079.16;;;29.32;21.82
81511;BME280;70931;48.796;8.440;2023-07-20T12:12:40;97071.72;;;29.93;21.83
81511;BME280;70931;48.796;8.440;2023-07-20T12:15:26;97040.41;;;30.59;22.14
81511;BME280;70931;48.796;8.440;2023-07-20T12:17:56;97060.38;;;30.65;22.43
81511;BME280;70931;48.796;8.440;2023-07-20T12:20:31;97040.66;;;31.03;22.92
81511;BME280;70931;48.796;8.440;2023-07-20T12:22:59;97045.72;;;31.37;20.67
81511;BME280;70931;48.796;8.440;2023-07-20T12:25:42;97051.16;;;32.05;20.78
81511;BME280;70931;48.796;8.440;2023-07-20T12:28:12;97041.94;;;31.96;20.65
81511;BME280;70931;48.796;8.440;2023-07-20T12:30:39;97047.72;;;30.50;21.41
81511;BME280;70931;48.796;8.440;2023-07-20T12:33:05;97047.09;;;30.21;21.66
81511;BME280;70931;48.796;8.440;2023-07-20T12:35:31;97040.59;;;30.30;24.47
81511;BME280;70931;48.796;8.440;2023-07-20T12:37:56;97041.22;;;30.73;21.44
81511;BME280;70931;48.796;8.440;2023-07-20T12:40:22;97030.44;;;31.18;21.76
81511;BME280;70931;48.796;8.440;2023-07-20T12:42:47;97029.00;;;31.47;20.62
81511;BME280;70931;48.796;8.440;2023-07-20T12:45:13;97028.44;;;32.08;20.20
81511;BME280;70931;48.796;8.440;2023-07-20T12:47:38;97024.03;;;32.30;19.75
81511;BME280;70931;48.796;8.440;2023-07-20T12:50:04;97035.84;;;31.23;20.56
81511;BME280;70931;48.796;8.440;2023-07-20T12:52:29;97004.22;;;31.34;19.83
81511;BME280;70931;48.796;8.440;2023-07-20T12:54:54;97019.78;;;30.57;21.27
81511;BME280;70931;48.796;8.440;2023-07-20T12:57:20;97013.50;;;30.97;21.52
81511;BME280;70931;48.796;8.440;2023-07-20T12:59:45;97010.78;;;31.60;21.47
81511;BME280;70931;48.796;8.440;2023-07-20T13:02:10;97019.41;;;32.17;19.14
81511;BME280;70931;48.796;8.440;2023-07-20T13:04:35;97019.34;;;32.30;21.13
81511;BME280;70931;48.796;8.440;2023-07-20T13:07:01;96994.03;;;32.59;18.42
81511;BME280;70931;48.796;8.440;2023-07-20T13:09:26;97013.59;;;32.49;19.32
81511;BME280;70931;48.796;8.440;2023-07-20T13:11:51;97013.00;;;32.07;22.48